createdAt,value
2023-05-10T00:01:29.821Z,12.72
2023-05-10T00:06:31.264Z,12.72
2023-05-10T00:11:32.510Z,12.75
2023-05-10T00:16:33.720Z,12.76
2023-05-10T00:21:34.957Z,12.77
2023-05-10T00:26:36.241Z,12.77
2023-05-10T00:31:37.487Z,12.82
2023-05-10T00:36:39.076Z,12.83
2023-05-10T00:41:40.325Z,12.83
2023-05-10T00:46:41.545Z,12.79
2023-05-10T00:51:43.871Z,12.77
2023-05-10T00:56:50.028Z,12.75
2023-05-10T01:01:52.500Z,12.75
2023-05-10T01:06:54.391Z,12.79
2023-05-10T01:11:55.980Z,12.79
2023-05-10T01:16:57.179Z,12.80
2023-05-10T01:21:58.388Z,12.80
2023-05-10T01:26:59.615Z,12.80
2023-05-10T01:32:00.835Z,12.79
2023-05-10T01:37:02.043Z,12.76
2023-05-10T01:42:04.456Z,12.78
2023-05-10T01:47:06.366Z,12.79
2023-05-10T01:52:07.904Z,12.80
2023-05-10T01:57:10.031Z,12.79
2023-05-10T02:02:12.742Z,12.77
2023-05-10T02:07:13.954Z,12.75
2023-05-10T02:12:15.201Z,12.68
2023-05-10T02:17:16.474Z,12.59
2023-05-10T02:22:17.707Z,12.57
2023-05-10T02:27:18.874Z,12.53
2023-05-10T02:32:20.078Z,12.54
2023-05-10T02:37:21.449Z,12.60
2023-05-10T02:42:22.625Z,12.60
2023-05-10T02:47:23.805Z,12.58
2023-05-10T02:52:25.009Z,12.57
2023-05-10T02:57:26.184Z,12.48
2023-05-10T03:02:27.777Z,12.50
2023-05-10T03:07:29.022Z,12.53
2023-05-10T03:12:30.232Z,12.53
2023-05-10T03:17:31.691Z,12.54
2023-05-10T03:22:32.936Z,12.62
2023-05-10T03:27:34.146Z,12.62
2023-05-10T03:32:35.834Z,12.62
2023-05-10T03:37:37.130Z,12.65
2023-05-10T03:42:38.385Z,12.64
2023-05-10T03:47:39.575Z,12.62
2023-05-10T03:52:40.789Z,12.64
2023-05-10T03:57:41.984Z,12.63
2023-05-10T04:02:43.941Z,12.60
2023-05-10T04:07:46.030Z,12.64
2023-05-10T04:12:47.327Z,12.71
2023-05-10T04:17:48.623Z,12.72
2023-05-10T04:22:49.880Z,12.71
2023-05-10T04:27:51.113Z,12.79
2023-05-10T04:32:52.450Z,12.84
2023-05-10T04:37:53.659Z,12.84
2023-05-10T04:42:55.350Z,12.85
2023-05-10T04:47:56.551Z,12.84
2023-05-10T04:52:57.747Z,12.75
2023-05-10T04:57:59.992Z,12.74
2023-05-10T05:03:01.307Z,12.74
2023-05-10T05:08:02.585Z,12.76
2023-05-10T05:13:03.798Z,12.79
2023-05-10T05:18:05.128Z,12.81
2023-05-10T05:23:06.419Z,12.84
2023-05-10T05:28:07.568Z,12.85
2023-05-10T05:33:08.815Z,12.84
2023-05-10T05:38:10.096Z,12.88
2023-05-10T05:43:11.329Z,13.01
2023-05-10T05:48:12.631Z,13.01
2023-05-10T05:53:13.773Z,12.96
2023-05-10T05:58:14.975Z,12.86
2023-05-10T06:03:16.422Z,12.87
2023-05-10T06:08:17.760Z,12.85
2023-05-10T06:13:18.921Z,12.79
2023-05-10T06:18:20.100Z,12.80
2023-05-10T06:23:21.538Z,12.77
2023-05-10T06:28:22.751Z,12.80
2023-05-10T06:33:23.934Z,12.77
2023-05-10T06:38:25.065Z,12.82
2023-05-10T06:43:27.201Z,12.80
2023-05-10T06:48:28.598Z,12.74
2023-05-10T06:53:29.843Z,12.78
2023-05-10T06:58:31.132Z,12.80
2023-05-10T07:03:32.384Z,12.75
2023-05-10T07:08:33.661Z,12.83
2023-05-10T07:13:34.876Z,12.81
2023-05-10T07:18:36.111Z,12.80
2023-05-10T07:23:37.426Z,12.84
2023-05-10T07:28:39.949Z,12.92
2023-05-10T07:33:41.241Z,13.01
2023-05-10T07:38:42.463Z,12.99
2023-05-10T07:43:43.824Z,13.09
2023-05-10T07:48:45.026Z,13.21
2023-05-10T07:53:46.237Z,13.36
2023-05-10T07:58:47.424Z,13.44
2023-05-10T08:03:48.994Z,13.44
2023-05-10T08:08:51.385Z,13.39
2023-05-10T08:13:52.710Z,13.44
2023-05-10T08:18:56.107Z,13.45
2023-05-10T08:23:57.454Z,13.53
2023-05-10T08:28:58.827Z,13.61
2023-05-10T08:34:00.010Z,13.69
2023-05-10T08:39:01.196Z,13.71
2023-05-10T08:44:02.444Z,13.63
2023-05-10T08:49:05.175Z,13.62
2023-05-10T08:54:06.614Z,13.52
2023-05-10T08:59:07.815Z,13.68
2023-05-10T09:04:09.074Z,13.78
2023-05-10T09:09:10.341Z,13.75
2023-05-10T09:14:11.630Z,13.75
2023-05-10T09:19:12.889Z,13.80
2023-05-10T09:24:14.249Z,14.06
2023-05-10T09:29:17.302Z,14.47
2023-05-10T09:34:19.086Z,14.82
2023-05-10T09:39:20.437Z,14.74
2023-05-10T09:44:21.681Z,14.53
2023-05-10T09:49:22.884Z,14.46
2023-05-10T09:54:25.098Z,14.46
2023-05-10T09:59:26.280Z,14.72
2023-05-10T10:04:27.600Z,14.81
2023-05-10T10:09:28.810Z,14.97
2023-05-10T10:14:30.003Z,15.17
2023-05-10T10:19:31.280Z,14.91
2023-05-10T10:24:32.449Z,14.89
2023-05-10T10:29:33.670Z,14.73
2023-05-10T10:34:34.954Z,14.70
2023-05-10T10:39:37.764Z,14.79
2023-05-10T10:44:39.421Z,14.76
2023-05-10T10:49:40.613Z,14.84
2023-05-10T10:54:42.814Z,14.87
2023-05-10T10:59:44.833Z,14.69
2023-05-10T11:04:47.547Z,14.41
2023-05-10T11:09:48.935Z,14.40
2023-05-10T11:14:50.226Z,14.63
2023-05-10T11:19:52.141Z,15.03
2023-05-10T11:24:53.295Z,15.30
2023-05-10T11:29:54.472Z,15.59
2023-05-10T11:34:55.819Z,15.64
2023-05-10T11:39:57.020Z,15.87
2023-05-10T11:44:58.261Z,15.48
2023-05-10T11:49:59.525Z,15.24
2023-05-10T11:55:01.090Z,15.14
2023-05-10T12:00:04.655Z,15.44
2023-05-10T12:05:06.226Z,16.08
2023-05-10T12:10:07.627Z,16.61
2023-05-10T12:15:08.838Z,17.34
2023-05-10T12:20:10.042Z,17.20
2023-05-10T12:25:11.377Z,17.47
2023-05-10T12:30:12.603Z,17.27
2023-05-10T12:35:13.822Z,16.99
2023-05-10T12:40:15.086Z,17.11
2023-05-10T12:45:16.491Z,17.20
2023-05-10T12:50:17.996Z,17.57
2023-05-10T12:55:19.324Z,17.43
2023-05-10T13:00:20.673Z,17.06
2023-05-10T13:05:21.890Z,17.08
2023-05-10T13:10:24.679Z,17.32
2023-05-10T13:15:26.014Z,17.78
2023-05-10T13:20:27.892Z,17.91
2023-05-10T13:25:29.062Z,18.13
2023-05-10T13:30:30.298Z,18.08
2023-05-10T13:35:31.487Z,18.39
2023-05-10T13:40:32.733Z,19.19
2023-05-10T13:45:34.141Z,19.35
2023-05-10T13:50:35.301Z,19.55
2023-05-10T13:55:37.744Z,19.06
2023-05-10T14:00:38.949Z,17.62
2023-05-10T14:05:40.219Z,17.10
2023-05-10T14:10:41.403Z,16.97
2023-05-10T14:15:42.853Z,17.13
2023-05-10T14:20:44.073Z,17.29
2023-05-10T14:25:45.274Z,17.21
2023-05-10T14:30:46.459Z,16.85
2023-05-10T14:35:47.736Z,16.48
2023-05-10T14:40:49.012Z,16.33
2023-05-10T14:45:50.584Z,16.22
2023-05-10T14:50:53.443Z,16.28
2023-05-10T14:55:54.587Z,16.35
2023-05-10T15:00:55.886Z,16.40
2023-05-10T15:05:58.561Z,16.35
2023-05-10T15:10:59.905Z,16.43
2023-05-10T15:16:01.176Z,16.42
2023-05-10T15:21:02.485Z,16.56
2023-05-10T15:26:03.780Z,16.77
2023-05-10T15:31:05.045Z,16.77
2023-05-10T15:36:06.448Z,16.77
2023-05-10T15:41:07.741Z,16.65
2023-05-10T15:46:08.982Z,16.46
2023-05-10T15:51:10.194Z,16.54
2023-05-10T15:56:11.569Z,16.57
2023-05-10T16:01:12.998Z,16.48
2023-05-10T16:06:14.244Z,16.46
2023-05-10T16:11:15.584Z,16.32
2023-05-10T16:16:17.085Z,16.11
2023-05-10T16:21:18.363Z,15.94
2023-05-10T16:26:19.520Z,15.68
2023-05-10T16:31:20.810Z,15.55
2023-05-10T16:36:22.292Z,15.30
2023-05-10T16:41:23.473Z,14.92
2023-05-10T16:46:24.821Z,14.65
2023-05-10T16:51:25.981Z,14.62
2023-05-10T16:56:27.248Z,14.68
2023-05-10T17:01:28.542Z,14.82
2023-05-10T17:06:29.838Z,14.69
2023-05-10T17:11:31.156Z,14.54
2023-05-10T17:16:32.342Z,14.42
2023-05-10T17:21:33.608Z,14.36
2023-05-10T17:26:34.849Z,14.25
2023-05-10T17:31:36.128Z,14.19
2023-05-10T17:36:37.461Z,14.13
2023-05-10T17:41:38.677Z,14.10
2023-05-10T17:46:40.081Z,14.05
2023-05-10T17:51:44.015Z,14.09
2023-05-10T17:56:46.636Z,14.11
2023-05-10T18:01:47.894Z,14.04
2023-05-10T18:06:49.340Z,13.82
2023-05-10T18:11:50.570Z,13.77
2023-05-10T18:16:51.834Z,13.60
2023-05-10T18:21:53.048Z,13.42
2023-05-10T18:26:54.273Z,13.38
2023-05-10T18:31:55.500Z,13.22
2023-05-10T18:36:56.716Z,13.06
2023-05-10T18:41:57.875Z,12.88
2023-05-10T18:46:59.286Z,12.79
2023-05-10T18:52:00.532Z,12.73
2023-05-10T18:57:01.739Z,12.77
2023-05-10T19:02:02.992Z,12.79
2023-05-10T19:07:04.256Z,12.83
2023-05-10T19:12:05.575Z,12.87
2023-05-10T19:17:06.767Z,12.78
2023-05-10T19:22:07.960Z,12.66
2023-05-10T19:27:09.247Z,12.63
2023-05-10T19:32:11.554Z,12.66
2023-05-10T19:37:12.797Z,12.79
2023-05-10T19:42:13.948Z,12.83
2023-05-10T19:47:15.424Z,12.83
2023-05-10T19:52:16.653Z,12.77
2023-05-10T19:57:18.016Z,12.77
2023-05-10T20:02:19.208Z,12.74
2023-05-10T20:07:20.454Z,12.73
2023-05-10T20:12:21.715Z,12.67
2023-05-10T20:17:22.983Z,12.54
2023-05-10T20:22:24.273Z,12.43
2023-05-10T20:27:25.493Z,12.53
2023-05-10T20:32:26.812Z,12.57
2023-05-10T20:37:28.170Z,12.58
2023-05-10T20:42:29.316Z,12.54
2023-05-10T20:47:30.540Z,12.52
2023-05-10T20:52:31.811Z,12.42
2023-05-10T20:57:32.980Z,12.31
2023-05-10T21:02:34.268Z,12.35
2023-05-10T21:07:35.566Z,12.40
2023-05-10T21:12:36.849Z,12.43
2023-05-10T21:17:38.057Z,12.44
2023-05-10T21:22:39.265Z,12.43
2023-05-10T21:27:40.432Z,12.36
2023-05-10T21:32:41.647Z,12.39
2023-05-10T21:37:42.840Z,12.33
2023-05-10T21:42:44.215Z,12.34
2023-05-10T21:47:45.401Z,12.32
2023-05-10T21:52:46.550Z,12.26
2023-05-10T21:57:47.723Z,12.27
2023-05-10T22:02:49.002Z,12.25
2023-05-10T22:07:50.376Z,12.21
2023-05-10T22:12:51.813Z,12.19
2023-05-10T22:17:53.306Z,12.16
2023-05-10T22:22:54.519Z,12.10
2023-05-10T22:27:55.683Z,12.05
2023-05-10T22:32:56.927Z,12.08
2023-05-10T22:37:58.139Z,12.09
2023-05-10T22:42:59.410Z,12.06
2023-05-10T22:48:00.638Z,11.98
2023-05-10T22:53:01.845Z,11.93
2023-05-10T22:58:03.046Z,11.87
2023-05-10T23:03:04.295Z,11.81
2023-05-10T23:08:05.663Z,11.61
2023-05-10T23:13:07.754Z,11.98
2023-05-10T23:18:09.694Z,12.05
2023-05-10T23:23:11.122Z,12.06
2023-05-10T23:28:12.414Z,12.10
2023-05-10T23:33:14.211Z,12.08
2023-05-10T23:38:15.411Z,12.06
2023-05-10T23:43:17.553Z,11.99
2023-05-10T23:48:18.880Z,11.98
2023-05-10T23:53:20.183Z,12.05
2023-05-10T23:58:21.985Z,12.01
